createdAt,value
2023-02-09T00:00:27.178Z,14.27
2023-02-09T00:04:09.651Z,13.38
2023-02-09T00:07:51.877Z,14.63
2023-02-09T00:11:54.010Z,15.02
2023-02-09T00:15:37.337Z,14.02
2023-02-09T00:19:20.526Z,12.73
2023-02-09T00:23:02.429Z,13.70
2023-02-09T00:26:45.124Z,14.00
2023-02-09T00:30:26.953Z,14.13
2023-02-09T00:34:09.925Z,12.85
2023-02-09T00:37:51.726Z,14.35
2023-02-09T00:41:51.912Z,14.10
2023-02-09T00:45:34.230Z,14.68
2023-02-09T00:49:16.451Z,12.70
2023-02-09T00:52:58.588Z,14.10
2023-02-09T00:56:40.556Z,13.13
2023-02-09T01:00:22.458Z,12.18
2023-02-09T01:04:04.910Z,12.13
2023-02-09T01:07:46.748Z,12.60
2023-02-09T01:11:29.816Z,12.27
2023-02-09T01:15:12.395Z,12.32
2023-02-09T01:18:54.661Z,12.93
2023-02-09T01:22:37.518Z,13.38
2023-02-09T01:26:19.804Z,12.60
2023-02-09T01:30:01.983Z,11.63
2023-02-09T01:33:43.809Z,12.35
2023-02-09T01:37:25.641Z,12.13
2023-02-09T01:41:07.446Z,12.15
2023-02-09T01:45:08.722Z,12.70
2023-02-09T01:48:55.016Z,12.00
2023-02-09T01:52:36.926Z,12.80
2023-02-09T01:56:25.397Z,11.05
2023-02-09T02:00:13.662Z,12.32
2023-02-09T02:03:55.837Z,11.55
2023-02-09T02:07:43.529Z,11.18
2023-02-09T02:11:29.957Z,11.50
2023-02-09T02:15:12.370Z,12.90
2023-02-09T02:19:12.117Z,12.13
2023-02-09T02:23:02.752Z,11.70
2023-02-09T02:27:01.436Z,11.32
2023-02-09T02:31:06.549Z,12.30
2023-02-09T02:35:12.935Z,12.18
2023-02-09T02:39:00.876Z,11.40
2023-02-09T02:42:59.717Z,11.05
2023-02-09T02:46:52.968Z,11.32
2023-02-09T02:50:37.216Z,12.00
2023-02-09T02:54:24.583Z,11.00
2023-02-09T03:02:00.395Z,11.00
2023-02-09T03:05:43.999Z,11.52
2023-02-09T03:09:25.882Z,11.23
2023-02-09T03:13:26.500Z,11.38
2023-02-09T03:18:13.058Z,10.88
2023-02-09T03:22:15.592Z,10.13
2023-02-09T03:25:58.990Z,11.30
2023-02-09T03:29:43.625Z,10.48
2023-02-09T03:33:29.133Z,9.93
2023-02-09T03:37:11.186Z,10.82
2023-02-09T03:40:53.498Z,9.35
2023-02-09T03:44:35.393Z,10.52
2023-02-09T03:48:17.202Z,10.27
2023-02-09T03:52:00.864Z,9.50
2023-02-09T03:55:42.804Z,9.45
2023-02-09T03:59:27.779Z,8.77
2023-02-09T04:03:09.701Z,8.70
2023-02-09T04:06:52.107Z,9.13
2023-02-09T04:10:33.910Z,8.27
2023-02-09T04:14:15.842Z,9.85
2023-02-09T04:17:57.763Z,8.43
2023-02-09T04:21:39.957Z,9.68
2023-02-09T04:25:22.044Z,8.63
2023-02-09T04:29:04.528Z,9.18
2023-02-09T04:32:46.318Z,8.82
2023-02-09T04:36:28.197Z,8.82
2023-02-09T04:40:10.835Z,9.30
2023-02-09T04:43:52.625Z,8.95
2023-02-09T04:47:34.500Z,7.68
2023-02-09T04:51:16.472Z,8.63
2023-02-09T04:54:58.268Z,9.85
2023-02-09T04:58:58.775Z,9.07
2023-02-09T05:02:40.623Z,11.52
2023-02-09T05:06:22.857Z,11.20
2023-02-09T05:10:04.984Z,14.48
2023-02-09T05:13:46.856Z,19.27
2023-02-09T05:17:28.674Z,17.92
2023-02-09T05:21:10.579Z,17.02
2023-02-09T05:24:52.454Z,16.77
2023-02-09T05:28:34.316Z,16.17
2023-02-09T05:32:16.250Z,14.68
2023-02-09T05:35:58.086Z,15.05
2023-02-09T05:39:39.881Z,14.13
2023-02-09T05:43:21.701Z,12.63
2023-02-09T05:47:03.715Z,12.35
2023-02-09T05:50:45.812Z,9.73
2023-02-09T05:54:27.780Z,10.35
2023-02-09T05:58:09.895Z,7.70
2023-02-09T06:01:51.841Z,8.23
2023-02-09T06:05:33.896Z,8.60
2023-02-09T06:09:15.736Z,8.63
2023-02-09T06:12:57.554Z,8.10
2023-02-09T06:16:40.841Z,6.95
2023-02-09T06:20:22.670Z,7.50
2023-02-09T06:24:04.971Z,7.82
2023-02-09T06:27:46.824Z,7.53
2023-02-09T06:31:28.803Z,7.88
2023-02-09T06:35:10.719Z,8.48
2023-02-09T06:38:52.510Z,7.43
2023-02-09T06:42:46.323Z,7.72
2023-02-09T06:46:28.848Z,7.80
2023-02-09T06:50:12.475Z,7.30
2023-02-09T06:53:54.515Z,7.20
2023-02-09T06:57:36.459Z,7.15
2023-02-09T07:01:18.492Z,6.95
2023-02-09T07:05:00.470Z,7.05
2023-02-09T07:08:43.327Z,6.60
2023-02-09T07:12:25.287Z,7.10
2023-02-09T07:16:09.619Z,6.90
2023-02-09T07:19:51.422Z,7.32
2023-02-09T07:23:33.689Z,6.78
2023-02-09T07:27:15.879Z,7.15
2023-02-09T07:31:02.915Z,7.32
2023-02-09T07:34:44.772Z,7.25
2023-02-09T07:38:29.366Z,7.75
2023-02-09T07:42:11.355Z,6.97
2023-02-09T07:45:53.259Z,7.32
2023-02-09T07:49:35.859Z,6.75
2023-02-09T07:53:17.912Z,6.82
2023-02-09T07:56:59.785Z,6.80
2023-02-09T08:00:41.677Z,6.93
2023-02-09T08:04:24.023Z,7.93
2023-02-09T08:13:00.333Z,7.45
2023-02-09T08:16:53.435Z,8.48
2023-02-09T08:20:38.563Z,8.02
2023-02-09T08:24:21.400Z,6.63
2023-02-09T08:28:04.587Z,6.45
2023-02-09T08:31:54.184Z,7.13
2023-02-09T08:35:42.635Z,6.70
2023-02-09T08:39:24.477Z,6.90
2023-02-09T08:43:07.760Z,7.80
2023-02-09T08:46:50.060Z,7.63
2023-02-09T08:50:32.315Z,7.53
2023-02-09T08:54:14.191Z,6.43
2023-02-09T08:57:56.122Z,6.80
2023-02-09T09:01:40.478Z,7.60
2023-02-09T09:05:22.313Z,6.88
2023-02-09T09:09:04.191Z,7.97
2023-02-09T09:12:46.055Z,7.35
2023-02-09T09:16:27.924Z,7.57
2023-02-09T09:20:11.471Z,7.15
2023-02-09T09:23:53.345Z,6.95
2023-02-09T09:27:36.146Z,7.28
2023-02-09T09:31:19.069Z,7.97
2023-02-09T09:35:02.298Z,7.57
2023-02-09T09:38:44.228Z,7.95
2023-02-09T09:42:40.237Z,7.60
2023-02-09T09:46:35.818Z,7.47
2023-02-09T09:50:19.667Z,7.10
2023-02-09T09:54:03.253Z,7.85
2023-02-09T09:57:45.843Z,9.05
2023-02-09T10:01:31.228Z,7.60
2023-02-09T10:05:15.840Z,7.30
2023-02-09T10:09:05.033Z,8.30
2023-02-09T10:12:52.844Z,7.68
2023-02-09T10:16:38.266Z,7.95
2023-02-09T10:20:41.139Z,7.55
2023-02-09T10:24:31.519Z,8.38
2023-02-09T10:28:24.734Z,8.02
2023-02-09T10:32:19.063Z,7.90
2023-02-09T10:36:05.889Z,8.73
2023-02-09T10:40:19.052Z,9.70
2023-02-09T10:44:05.511Z,31.40
2023-02-09T10:48:09.788Z,40.27
2023-02-09T10:51:51.617Z,37.22
2023-02-09T10:55:37.897Z,27.83
2023-02-09T10:59:25.048Z,29.10
2023-02-09T11:03:25.365Z,13.40
2023-02-09T11:07:14.918Z,7.80
2023-02-09T11:10:59.936Z,5.43
2023-02-09T11:14:43.116Z,6.10
2023-02-09T11:18:32.608Z,7.50
2023-02-09T11:22:32.760Z,6.00
2023-02-09T11:26:38.161Z,6.97
2023-02-09T11:30:47.912Z,5.57
2023-02-09T11:34:59.275Z,5.97
2023-02-09T11:38:54.202Z,6.47
2023-02-09T11:42:46.120Z,6.05
2023-02-09T11:46:32.293Z,6.53
2023-02-09T11:50:56.193Z,6.33
2023-02-09T11:54:38.251Z,6.30
2023-02-09T11:58:48.591Z,5.25
2023-02-09T12:02:55.316Z,4.43
2023-02-09T12:06:42.938Z,4.68
2023-02-09T12:10:24.817Z,4.05
2023-02-09T12:14:15.774Z,3.78
2023-02-09T12:18:11.081Z,2.97
2023-02-09T12:21:52.994Z,3.25
2023-02-09T12:26:16.753Z,2.72
2023-02-09T12:29:59.138Z,2.42
2023-02-09T12:34:11.799Z,2.63
2023-02-09T12:38:17.319Z,2.10
2023-02-09T12:42:05.198Z,2.40
2023-02-09T12:46:12.608Z,2.10
2023-02-09T12:50:05.324Z,1.92
2023-02-09T12:53:48.335Z,2.15
2023-02-09T12:57:49.592Z,1.80
2023-02-09T13:02:08.240Z,1.27
2023-02-09T13:06:00.145Z,1.42
2023-02-09T13:09:45.748Z,1.52
2023-02-09T13:13:51.489Z,1.92
2023-02-09T13:17:40.341Z,2.08
2023-02-09T13:21:53.179Z,2.70
2023-02-09T13:25:38.791Z,2.25
2023-02-09T13:29:24.090Z,2.53
2023-02-09T13:33:36.115Z,3.00
2023-02-09T13:37:22.694Z,1.90
2023-02-09T13:41:07.614Z,2.60
2023-02-09T13:44:55.150Z,1.55
2023-02-09T13:48:38.750Z,2.58
2023-02-09T13:52:20.906Z,1.77
2023-02-09T13:56:02.786Z,1.90
2023-02-09T13:59:44.988Z,2.03
2023-02-09T14:03:35.060Z,2.13
2023-02-09T14:07:18.385Z,1.98
2023-02-09T14:11:16.251Z,2.60
2023-02-09T14:15:16.730Z,2.40
2023-02-09T14:18:59.869Z,2.28
2023-02-09T14:22:42.712Z,2.47
2023-02-09T14:26:49.199Z,2.72
2023-02-09T14:30:34.162Z,3.55
2023-02-09T14:34:28.206Z,2.25
2023-02-09T14:38:36.356Z,2.22
2023-02-09T14:42:18.354Z,2.30
2023-02-09T14:46:01.525Z,1.88
2023-02-09T14:49:43.524Z,1.92
2023-02-09T14:53:30.470Z,2.05
2023-02-09T14:57:13.107Z,1.48
2023-02-09T15:00:57.743Z,0.88
2023-02-09T15:04:41.955Z,1.10
2023-02-09T15:08:26.881Z,0.93
2023-02-09T15:12:21.096Z,1.25
2023-02-09T15:16:02.932Z,1.30
2023-02-09T15:19:45.799Z,1.30
2023-02-09T15:23:27.602Z,1.35
2023-02-09T15:27:32.471Z,1.08
2023-02-09T15:31:16.163Z,1.10
2023-02-09T15:34:58.141Z,0.95
2023-02-09T15:38:40.013Z,1.02
2023-02-09T15:42:42.153Z,0.73
2023-02-09T15:46:42.792Z,0.95
2023-02-09T15:50:27.570Z,1.00
2023-02-09T15:54:16.661Z,0.80
2023-02-09T15:57:59.034Z,1.02
2023-02-09T16:01:41.972Z,0.75
2023-02-09T16:05:27.256Z,0.70
2023-02-09T16:09:16.347Z,0.75
2023-02-09T16:12:58.214Z,0.98
2023-02-09T16:16:40.025Z,0.82
2023-02-09T16:20:23.698Z,1.50
2023-02-09T16:24:08.081Z,1.42
2023-02-09T16:27:53.962Z,1.15
2023-02-09T16:31:35.862Z,1.50
2023-02-09T16:35:19.054Z,1.80
2023-02-09T16:39:00.916Z,1.92
2023-02-09T16:42:48.509Z,2.00
2023-02-09T16:46:31.513Z,1.35
2023-02-09T16:50:22.776Z,1.45
2023-02-09T16:54:05.238Z,1.63
2023-02-09T16:57:47.080Z,1.77
2023-02-09T17:01:28.978Z,2.33
2023-02-09T17:05:24.678Z,2.83
2023-02-09T17:09:15.676Z,3.55
2023-02-09T17:12:58.338Z,2.55
2023-02-09T17:16:44.583Z,2.85
2023-02-09T17:20:30.665Z,3.17
2023-02-09T17:24:17.227Z,2.63
2023-02-09T17:27:59.238Z,2.53
2023-02-09T17:31:52.868Z,3.30
2023-02-09T17:36:17.393Z,3.50
2023-02-09T17:39:41.551Z,4.40
2023-02-09T17:43:24.493Z,3.70
2023-02-09T17:47:06.407Z,3.47
2023-02-09T17:50:50.531Z,3.47
2023-02-09T17:54:33.923Z,3.08
2023-02-09T17:58:16.617Z,4.10
2023-02-09T18:01:58.871Z,3.55
2023-02-09T18:05:41.357Z,4.93
2023-02-09T18:09:23.160Z,5.32
2023-02-09T18:13:07.357Z,5.70
2023-02-09T18:16:49.653Z,5.57
2023-02-09T18:20:33.834Z,5.25
2023-02-09T18:24:19.175Z,4.90
2023-02-09T18:28:04.966Z,4.28
2023-02-09T18:31:49.641Z,4.70
2023-02-09T18:35:41.416Z,4.85
2023-02-09T18:39:23.670Z,5.20
2023-02-09T18:43:07.267Z,5.32
2023-02-09T18:46:49.653Z,5.28
2023-02-09T18:50:32.637Z,5.80
2023-02-09T18:54:16.444Z,5.45
2023-02-09T18:57:59.745Z,5.95
2023-02-09T19:01:41.708Z,5.43
2023-02-09T19:05:29.225Z,6.05
2023-02-09T19:09:11.166Z,5.38
2023-02-09T19:12:54.005Z,5.57
2023-02-09T19:16:37.009Z,6.65
2023-02-09T19:20:23.804Z,5.85
2023-02-09T19:24:05.787Z,7.90
2023-02-09T19:27:47.761Z,6.25
2023-02-09T19:31:30.816Z,6.78
2023-02-09T19:35:14.630Z,7.10
2023-02-09T19:38:56.774Z,7.93
2023-02-09T19:42:38.561Z,7.05
2023-02-09T19:46:20.375Z,7.93
2023-02-09T19:50:02.359Z,8.07
2023-02-09T19:53:44.203Z,7.30
2023-02-09T19:57:26.389Z,6.57
2023-02-09T20:01:09.851Z,6.72
2023-02-09T20:04:51.868Z,7.00
2023-02-09T20:08:33.895Z,7.45
2023-02-09T20:12:15.804Z,6.57
2023-02-09T20:15:58.174Z,6.95
2023-02-09T20:19:40.050Z,6.80
2023-02-09T20:23:21.887Z,7.55
2023-02-09T20:27:04.142Z,8.23
2023-02-09T20:30:46.968Z,8.27
2023-02-09T20:34:29.149Z,6.25
2023-02-09T20:38:12.618Z,5.72
2023-02-09T20:42:16.536Z,7.15
2023-02-09T20:46:16.985Z,6.43
2023-02-09T20:50:00.202Z,6.50
2023-02-09T20:53:42.229Z,6.10
2023-02-09T20:57:29.544Z,6.97
2023-02-09T21:01:11.628Z,7.30
2023-02-09T21:04:57.364Z,5.55
2023-02-09T21:08:39.546Z,6.30
2023-02-09T21:12:21.785Z,5.97
2023-02-09T21:16:04.374Z,6.13
2023-02-09T21:19:46.615Z,5.78
2023-02-09T21:23:28.404Z,5.47
2023-02-09T21:27:10.250Z,5.35
2023-02-09T21:30:52.039Z,4.85
2023-02-09T21:34:34.114Z,5.20
2023-02-09T21:38:16.038Z,4.65
2023-02-09T21:42:16.249Z,4.35
2023-02-09T21:45:58.071Z,4.47
2023-02-09T21:49:40.001Z,4.20
2023-02-09T21:53:21.827Z,4.63
2023-02-09T21:57:04.234Z,4.70
2023-02-09T22:00:46.463Z,5.10
2023-02-09T22:04:28.523Z,4.30
2023-02-09T22:08:10.366Z,4.28
2023-02-09T22:11:52.301Z,4.80
2023-02-09T22:15:34.322Z,5.18
2023-02-09T22:19:16.309Z,5.18
2023-02-09T22:22:58.136Z,5.40
2023-02-09T22:26:41.241Z,6.47
2023-02-09T22:30:23.120Z,4.80
2023-02-09T22:34:07.256Z,7.35
2023-02-09T22:37:49.505Z,5.95
2023-02-09T22:41:31.843Z,5.15
2023-02-09T22:45:14.294Z,6.78
2023-02-09T22:48:59.251Z,6.43
2023-02-09T22:52:41.149Z,5.40
2023-02-09T22:56:23.077Z,5.05
2023-02-09T23:00:09.809Z,5.10
2023-02-09T23:03:51.879Z,5.67
2023-02-09T23:07:33.688Z,5.53
2023-02-09T23:11:17.175Z,6.35
2023-02-09T23:14:59.042Z,5.95
2023-02-09T23:18:48.404Z,6.35
2023-02-09T23:22:30.238Z,6.72
2023-02-09T23:26:13.213Z,5.13
2023-02-09T23:29:55.170Z,5.47
2023-02-09T23:33:37.925Z,5.40
2023-02-09T23:37:36.828Z,5.57
2023-02-09T23:41:19.665Z,6.28
2023-02-09T23:45:01.472Z,5.88
2023-02-09T23:48:44.598Z,5.57
2023-02-09T23:52:26.411Z,5.70
2023-02-09T23:56:08.438Z,6.82
2023-02-09T23:59:51.110Z,5.85
